Time;durP1;ratioP1;P1;durP2;ratioP2;P2;SDS_P1;SDS_P2;PMS_P1;PMS_P2;Temp;Humidity;BMP_temperature;BMP_pressure;BME280_temperature;BME280_humidity;BME280_pressure;Samples;Min_cycle;Max_cycle;Signal;HPM_P1;HPM_P2
2021/10/25 00:00:54;;;;;;;11.17;8.60;;;5.60;80.50;;;;;;5056876;28;20466;-42
2021/10/25 00:03:21;;;;;;;11.03;9.40;;;5.60;80.50;;;;;;5061145;28;20896;-42
2021/10/25 00:05:48;;;;;;;12.90;8.10;;;5.50;80.60;;;;;;5063027;28;20454;-42
2021/10/25 00:08:14;;;;;;;9.33;7.50;;;5.40;80.80;;;;;;5060271;28;20478;-42
2021/10/25 00:10:42;;;;;;;10.63;7.23;;;5.50;80.70;;;;;;5061289;28;20441;-42
2021/10/25 00:13:09;;;;;;;9.53;6.37;;;5.50;80.90;;;;;;5050704;28;20480;-42
2021/10/25 00:15:37;;;;;;;7.87;6.73;;;5.50;80.60;;;;;;5061857;28;20844;-42
2021/10/25 00:18:04;;;;;;;8.77;6.50;;;5.50;80.80;;;;;;5066989;28;20456;-42
2021/10/25 00:20:32;;;;;;;7.27;6.17;;;5.40;80.50;;;;;;5066492;28;20460;-42
2021/10/25 00:22:58;;;;;;;7.27;6.47;;;5.40;80.60;;;;;;5063308;28;20830;-42
2021/10/25 00:25:25;;;;;;;7.13;6.43;;;5.40;80.60;;;;;;5063802;28;20553;-42
2021/10/25 00:27:52;;;;;;;8.07;7.27;;;5.40;80.70;;;;;;5069112;28;20485;-42
2021/10/25 00:30:19;;;;;;;10.23;7.73;;;5.30;80.90;;;;;;5048156;28;20830;-42
2021/10/25 00:32:45;;;;;;;8.43;6.83;;;5.30;80.90;;;;;;5065026;28;20946;-42
2021/10/25 00:35:12;;;;;;;9.57;8.43;;;5.30;80.90;;;;;;5063586;28;20468;-42
2021/10/25 00:37:39;;;;;;;7.97;7.17;;;5.30;81.10;;;;;;5048446;28;20449;-42
2021/10/25 00:40:07;;;;;;;10.53;7.87;;;5.30;80.90;;;;;;5051327;28;20446;-42
2021/10/25 00:42:34;;;;;;;10.30;8.80;;;5.20;80.90;;;;;;5065172;28;20694;-42
2021/10/25 00:45:00;;;;;;;8.03;7.23;;;5.20;81.00;;;;;;5066690;28;20454;-42
2021/10/25 00:47:27;;;;;;;11.27;7.53;;;5.20;81.10;;;;;;5061163;28;20450;-42
2021/10/25 00:49:54;;;;;;;7.13;6.23;;;5.10;81.10;;;;;;5067201;28;20434;-42
2021/10/25 00:52:21;;;;;;;7.83;6.93;;;5.10;81.20;;;;;;5047113;28;20445;-42
2021/10/25 00:54:47;;;;;;;9.17;7.57;;;5.10;81.10;;;;;;5035080;28;20528;-42
2021/10/25 00:57:14;;;;;;;9.83;7.10;;;5.10;81.10;;;;;;5049630;28;20819;-44
2021/10/25 00:59:41;;;;;;;8.40;6.37;;;5.10;81.10;;;;;;5062447;28;20537;-44
2021/10/25 01:02:08;;;;;;;8.20;6.67;;;5.00;81.00;;;;;;5062659;28;20464;-44
2021/10/25 01:04:35;;;;;;;8.17;6.67;;;5.10;80.80;;;;;;5066563;28;20530;-42
2021/10/25 01:07:03;;;;;;;11.17;7.33;;;5.00;80.70;;;;;;5061859;28;20454;-42
2021/10/25 01:09:31;;;;;;;8.80;6.97;;;5.00;80.80;;;;;;5069411;28;20477;-42
2021/10/25 01:12:00;;;;;;;10.60;8.53;;;5.00;80.80;;;;;;5044845;28;20480;-42
2021/10/25 01:14:26;;;;;;;10.57;7.07;;;5.00;80.80;;;;;;5059472;28;20459;-42
2021/10/25 01:16:53;;;;;;;8.83;6.57;;;5.00;81.00;;;;;;5062056;28;20457;-42
2021/10/25 01:19:20;;;;;;;11.13;6.83;;;5.00;80.80;;;;;;5062921;28;20513;-42
2021/10/25 01:21:47;;;;;;;8.27;6.97;;;5.00;80.70;;;;;;5062161;28;20453;-42
2021/10/25 01:24:14;;;;;;;10.83;8.60;;;5.00;80.70;;;;;;5063635;28;20462;-42
2021/10/25 01:26:40;;;;;;;7.17;6.23;;;4.90;80.80;;;;;;5065788;28;20449;-42
2021/10/25 01:29:07;;;;;;;10.23;7.10;;;4.90;81.00;;;;;;5063673;28;20565;-42
2021/10/25 01:31:34;;;;;;;11.13;8.70;;;4.80;81.20;;;;;;5061822;28;20453;-42
2021/10/25 01:34:02;;;;;;;8.37;7.20;;;4.80;81.20;;;;;;5064888;28;20462;-42
2021/10/25 01:36:29;;;;;;;9.80;7.67;;;4.80;81.20;;;;;;5064465;28;20877;-43
2021/10/25 01:38:56;;;;;;;7.97;7.20;;;4.80;81.20;;;;;;5062544;28;20457;-43
2021/10/25 01:41:22;;;;;;;9.30;7.13;;;4.70;81.20;;;;;;5063396;28;20830;-41
2021/10/25 01:43:49;;;;;;;8.47;6.77;;;4.80;80.70;;;;;;5050786;28;20458;-42
2021/10/25 01:46:16;;;;;;;7.90;6.77;;;4.80;80.70;;;;;;5048049;28;20458;-42
2021/10/25 01:48:43;;;;;;;7.67;6.87;;;4.80;80.60;;;;;;5062684;28;20489;-42
2021/10/25 01:51:10;;;;;;;12.50;8.30;;;4.80;80.60;;;;;;5062157;28;20480;-42
2021/10/25 01:53:37;;;;;;;9.60;7.37;;;4.80;80.60;;;;;;5063922;28;20450;-42
2021/10/25 01:56:06;;;;;;;9.43;8.43;;;4.80;80.30;;;;;;5065287;28;20476;-43
2021/10/25 01:58:33;;;;;;;9.50;7.90;;;4.70;80.60;;;;;;5064839;28;20462;-43
2021/10/25 02:01:00;;;;;;;10.57;7.33;;;4.70;80.60;;;;;;5058733;28;20965;-43
2021/10/25 02:03:27;;;;;;;9.60;7.37;;;4.70;80.70;;;;;;5045274;28;20703;-43
2021/10/25 02:05:54;;;;;;;11.90;8.13;;;4.70;80.80;;;;;;5045115;28;20822;-43
2021/10/25 02:08:23;;;;;;;10.17;8.97;;;4.60;81.10;;;;;;5060555;28;20577;-43
2021/10/25 02:10:50;;;;;;;11.63;8.57;;;4.60;81.20;;;;;;5064425;28;20450;-43
2021/10/25 02:13:17;;;;;;;9.97;9.00;;;4.70;81.20;;;;;;5046817;28;20454;-42
2021/10/25 02:15:45;;;;;;;15.70;8.40;;;4.70;80.80;;;;;;5063040;28;20461;-42
2021/10/25 02:18:13;;;;;;;8.73;7.53;;;4.70;80.50;;;;;;5061622;28;20461;-43
2021/10/25 02:20:40;;;;;;;7.60;6.63;;;4.70;80.80;;;;;;5051525;28;20527;-45
2021/10/25 02:23:09;;;;;;;11.43;8.20;;;4.60;81.00;;;;;;5072107;28;20540;-45
2021/10/25 02:25:36;;;;;;;11.10;7.00;;;4.60;81.20;;;;;;5074438;28;20464;-45
2021/10/25 02:28:04;;;;;;;11.03;8.63;;;4.60;80.90;;;;;;5071993;28;20457;-45
2021/10/25 02:30:31;;;;;;;11.00;7.73;;;4.60;80.90;;;;;;5076912;28;20461;-45
2021/10/25 02:32:59;;;;;;;11.23;7.70;;;4.50;81.00;;;;;;5077287;28;21041;-45
2021/10/25 02:35:25;;;;;;;9.43;8.30;;;4.40;81.00;;;;;;5040735;28;21014;-45
2021/10/25 02:37:55;;;;;;;9.67;7.87;;;4.50;80.90;;;;;;5073809;28;20680;-45
2021/10/25 02:40:25;;;;;;;12.47;7.80;;;4.40;81.00;;;;;;5074848;28;20568;-45
2021/10/25 02:42:52;;;;;;;9.37;7.17;;;4.40;81.00;;;;;;5057272;28;21066;-45
2021/10/25 02:45:19;;;;;;;11.63;8.73;;;4.40;81.00;;;;;;5078393;28;20508;-45
2021/10/25 02:47:47;;;;;;;14.00;7.57;;;4.40;81.00;;;;;;5076236;28;20541;-45
2021/10/25 02:50:14;;;;;;;12.70;8.33;;;4.40;81.00;;;;;;5075726;28;20557;-45
2021/10/25 02:52:41;;;;;;;10.20;8.47;;;4.40;80.80;;;;;;5058602;28;20450;-45
2021/10/25 02:55:08;;;;;;;9.60;7.97;;;4.40;80.80;;;;;;5075466;28;20448;-45
2021/10/25 02:57:37;;;;;;;13.80;7.57;;;4.30;81.00;;;;;;5073818;28;20452;-45
2021/10/25 03:00:06;;;;;;;16.10;8.30;;;4.30;81.00;;;;;;5074083;28;20462;-45
2021/10/25 03:02:33;;;;;;;11.70;8.47;;;4.30;80.90;;;;;;5072239;28;20764;-44
2021/10/25 03:05:03;;;;;;;8.33;7.43;;;4.30;80.90;;;;;;5069703;28;20534;-45
2021/10/25 03:07:29;;;;;;;12.67;8.30;;;4.30;80.80;;;;;;5071735;28;20537;-45
2021/10/25 03:09:57;;;;;;;10.33;8.40;;;4.30;80.90;;;;;;5071563;28;20758;-45
2021/10/25 03:12:24;;;;;;;13.03;8.60;;;4.30;81.00;;;;;;5058830;28;20446;-45
2021/10/25 03:14:51;;;;;;;11.97;7.97;;;4.30;81.10;;;;;;5073786;28;20452;-45
2021/10/25 03:17:18;;;;;;;11.73;8.37;;;4.30;80.90;;;;;;5071340;28;20451;-45
2021/10/25 03:19:46;;;;;;;11.77;8.90;;;4.20;81.10;;;;;;5052356;28;20463;-45
2021/10/25 03:22:14;;;;;;;10.10;9.10;;;4.30;80.60;;;;;;5069684;28;20454;-45
2021/10/25 03:24:43;;;;;;;8.53;7.67;;;4.40;80.30;;;;;;5076384;28;20524;-45
2021/10/25 03:27:09;;;;;;;9.13;7.60;;;4.30;80.50;;;;;;5072601;28;20461;-45
2021/10/25 03:29:36;;;;;;;12.13;8.97;;;4.20;80.70;;;;;;5071865;28;20478;-45
2021/10/25 03:32:03;;;;;;;9.87;8.30;;;4.20;80.70;;;;;;5076678;28;20450;-45
2021/10/25 03:34:30;;;;;;;10.53;8.23;;;4.10;80.90;;;;;;5074909;28;20465;-45
2021/10/25 03:36:57;;;;;;;9.23;7.50;;;4.10;80.90;;;;;;5075242;28;20453;-45
2021/10/25 03:39:26;;;;;;;9.17;7.73;;;4.10;80.90;;;;;;5060609;28;20454;-45
2021/10/25 03:41:55;;;;;;;14.93;8.77;;;4.10;80.90;;;;;;5053951;28;20808;-45
2021/10/25 03:47:02;;;;;;;12.70;9.50;;;4.20;80.20;;;;;;5071266;28;20521;-45
2021/10/25 03:49:36;;;;;;;11.80;8.23;;;4.10;80.20;;;;;;5073578;28;20525;-45
2021/10/25 03:52:12;;;;;;;10.07;7.97;;;4.10;80.50;;;;;;5055158;28;20438;-45
2021/10/25 03:54:50;;;;;;;10.90;9.13;;;4.10;80.50;;;;;;5073259;28;20438;-45
2021/10/25 04:25:14;;;;;;;13.37;9.30;;;4.10;81.30;;;;;;5074550;28;20471;-45
2021/10/25 04:27:49;;;;;;;15.77;10.87;;;3.90;81.50;;;;;;5076356;28;20444;-45
2021/10/25 04:30:18;;;;;;;10.77;9.63;;;3.90;81.60;;;;;;5069096;28;20553;-45
2021/10/25 04:32:46;;;;;;;13.20;10.33;;;3.90;81.70;;;;;;5073678;28;20869;-45
2021/10/25 04:35:13;;;;;;;16.60;11.70;;;3.90;81.90;;;;;;5066911;28;20462;-45
2021/10/25 04:37:41;;;;;;;11.43;9.87;;;4.00;81.90;;;;;;5075243;28;20445;-45
2021/10/25 04:40:08;;;;;;;11.63;9.60;;;4.00;81.90;;;;;;5072424;28;20461;-45
2021/10/25 04:42:35;;;;;;;17.47;10.50;;;4.00;81.90;;;;;;5069504;28;20458;-45
2021/10/25 04:45:02;;;;;;;13.23;10.07;;;4.00;81.80;;;;;;5070138;28;20561;-45
2021/10/25 04:47:29;;;;;;;11.33;8.50;;;4.00;81.90;;;;;;5058526;28;20450;-45
2021/10/25 04:49:56;;;;;;;15.50;9.73;;;4.00;81.90;;;;;;5075003;28;20477;-45
2021/10/25 04:52:23;;;;;;;16.40;10.83;;;4.00;82.20;;;;;;5072018;28;20455;-45
2021/10/25 04:54:50;;;;;;;16.10;11.00;;;4.00;82.40;;;;;;5054962;28;20525;-45
2021/10/25 04:57:17;;;;;;;13.07;9.33;;;4.00;82.50;;;;;;5074925;28;20522;-45
2021/10/25 04:59:44;;;;;;;13.87;10.73;;;4.10;82.70;;;;;;5074711;28;20534;-45
2021/10/25 05:02:11;;;;;;;15.67;9.70;;;4.10;82.80;;;;;;5080460;28;20453;-45
2021/10/25 05:04:38;;;;;;;15.17;10.10;;;4.20;83.00;;;;;;5062362;28;20567;-45
2021/10/25 05:07:04;;;;;;;13.90;9.33;;;4.30;82.90;;;;;;5074694;28;20505;-45
2021/10/25 05:09:31;;;;;;;14.30;10.70;;;4.20;83.00;;;;;;5055747;28;20489;-45
2021/10/25 05:11:58;;;;;;;18.07;10.03;;;4.20;83.10;;;;;;5078695;28;20460;-45
2021/10/25 05:14:25;;;;;;;11.20;9.60;;;4.20;83.20;;;;;;5059907;28;20445;-45
2021/10/25 05:16:52;;;;;;;14.70;10.67;;;4.20;83.50;;;;;;5073891;28;20456;-45
2021/10/25 05:19:18;;;;;;;15.07;10.03;;;4.20;83.60;;;;;;5075600;28;20449;-45
2021/10/25 05:21:45;;;;;;;17.20;11.03;;;4.30;83.60;;;;;;5071705;28;20478;-45
2021/10/25 05:24:12;;;;;;;14.63;10.70;;;4.30;83.50;;;;;;5074653;28;20481;-45
2021/10/25 05:26:39;;;;;;;15.83;10.60;;;4.30;83.60;;;;;;5080667;28;20907;-45
2021/10/25 05:29:05;;;;;;;16.00;10.60;;;4.30;83.80;;;;;;5073766;28;20493;-45
2021/10/25 05:31:32;;;;;;;12.80;9.57;;;4.30;83.80;;;;;;5073782;28;21450;-45
2021/10/25 05:33:59;;;;;;;18.10;10.20;;;4.30;84.10;;;;;;5074669;28;20507;-45
2021/10/25 05:36:26;;;;;;;14.80;11.20;;;4.30;84.20;;;;;;5057818;28;20469;-45
2021/10/25 05:38:53;;;;;;;25.17;11.83;;;4.30;84.30;;;;;;5071906;28;20651;-45
2021/10/25 05:41:19;;;;;;;14.10;10.33;;;4.30;84.70;;;;;;5074524;28;20457;-45
2021/10/25 05:43:46;;;;;;;16.67;8.27;;;4.30;84.80;;;;;;5058134;28;20458;-45
2021/10/25 05:46:13;;;;;;;12.13;8.37;;;4.30;85.00;;;;;;5076179;28;20460;-45
2021/10/25 05:48:41;;;;;;;12.33;9.37;;;4.30;85.00;;;;;;5080233;28;20499;-45
2021/10/25 05:51:08;;;;;;;13.03;8.73;;;4.40;85.10;;;;;;5072294;28;20484;-45
2021/10/25 05:53:35;;;;;;;11.37;8.63;;;4.40;85.20;;;;;;5053897;28;20472;-45
2021/10/25 05:56:02;;;;;;;11.97;9.20;;;4.40;85.10;;;;;;5069342;28;20470;-45
2021/10/25 05:58:30;;;;;;;11.97;10.00;;;4.40;85.00;;;;;;5061709;28;20935;-45
2021/10/25 06:01:00;;;;;;;13.73;8.43;;;4.30;85.20;;;;;;5079000;28;20450;-45
2021/10/25 06:03:31;;;;;;;12.20;9.13;;;4.30;85.30;;;;;;5057556;28;20470;-45
2021/10/25 06:05:58;;;;;;;14.87;9.77;;;4.30;85.30;;;;;;5075565;28;21074;-46
2021/10/25 06:08:24;;;;;;;22.47;11.27;;;4.20;85.50;;;;;;5057752;28;20462;-45
2021/10/25 06:10:51;;;;;;;17.17;12.10;;;4.30;85.50;;;;;;5071356;28;20880;-45
2021/10/25 06:13:31;;;;;;;14.97;10.40;;;4.30;85.50;;;;;;5070062;28;20453;-45
2021/10/25 06:16:36;;;;;;;13.90;10.10;;;4.30;85.50;;;;;;5076780;28;20472;-45
2021/10/25 06:18:51;;;;;;;15.30;10.43;;;4.30;85.80;;;;;;5069529;28;20469;-45
2021/10/25 06:21:18;;;;;;;14.30;10.07;;;4.30;85.80;;;;;;5074726;28;20828;-45
2021/10/25 06:23:44;;;;;;;15.47;10.70;;;4.30;85.90;;;;;;5077697;28;20464;-45
2021/10/25 06:26:11;;;;;;;16.00;9.93;;;4.30;85.90;;;;;;5074524;28;20442;-45
2021/10/25 06:28:38;;;;;;;14.03;10.50;;;4.30;86.00;;;;;;5072739;28;20462;-45
2021/10/25 06:31:06;;;;;;;12.20;9.93;;;4.40;86.10;;;;;;5078923;28;20496;-45
2021/10/25 06:33:42;;;;;;;12.70;10.23;;;4.40;86.10;;;;;;5054887;28;20539;-45
2021/10/25 06:36:09;;;;;;;17.90;11.90;;;4.40;86.10;;;;;;5077499;28;20469;-45
2021/10/25 06:38:43;;;;;;;15.13;10.13;;;4.40;86.20;;;;;;5073586;28;20450;-45
2021/10/25 06:41:13;;;;;;;18.67;11.50;;;4.40;86.20;;;;;;5069594;28;20518;-45
2021/10/25 06:43:40;;;;;;;19.43;11.37;;;4.40;86.20;;;;;;5078687;28;20589;-45
2021/10/25 06:46:06;;;;;;;15.07;11.20;;;4.50;86.20;;;;;;5071786;28;20458;-45
2021/10/25 06:48:33;;;;;;;17.70;11.50;;;4.60;86.10;;;;;;5074999;28;20446;-45
2021/10/25 06:51:00;;;;;;;18.63;12.07;;;4.60;86.10;;;;;;5072537;28;20482;-45
2021/10/25 06:53:28;;;;;;;18.00;12.60;;;4.60;86.20;;;;;;5078830;28;20454;-45
2021/10/25 06:55:55;;;;;;;16.70;10.60;;;4.60;86.20;;;;;;5076515;28;20452;-45
2021/10/25 06:58:22;;;;;;;16.20;10.17;;;4.60;86.20;;;;;;5072837;28;20846;-45
2021/10/25 07:00:49;;;;;;;14.47;9.57;;;4.70;86.30;;;;;;5074262;28;20454;-45
2021/10/25 07:03:16;;;;;;;15.77;10.23;;;4.70;85.50;;;;;;5070442;28;20859;-44
2021/10/25 07:05:43;;;;;;;14.43;9.27;;;4.70;85.70;;;;;;5070319;28;20483;-45
2021/10/25 07:08:11;;;;;;;16.13;10.90;;;4.70;85.70;;;;;;5054808;28;20469;-45
2021/10/25 07:10:38;;;;;;;15.00;9.00;;;4.70;85.80;;;;;;5075054;28;20485;-45
2021/10/25 07:13:21;;;;;;;14.87;9.83;;;4.80;85.60;;;;;;5073510;28;20536;-45
2021/10/25 07:15:54;;;;;;;18.87;10.67;;;4.80;85.70;;;;;;5075773;28;20453;-45
2021/10/25 07:18:30;;;;;;;14.57;10.43;;;4.90;85.40;;;;;;5071464;28;20444;-46
2021/10/25 08:07:25;;;;;;;17.87;12.80;;;5.20;86.50;;;;;;5065806;28;20483;-46
2021/10/25 08:09:55;;;;;;;23.70;12.97;;;5.30;86.80;;;;;;5049965;28;20499;-46
2021/10/25 08:12:28;;;;;;;22.20;12.13;;;5.20;87.00;;;;;;5055702;28;20489;-46
2021/10/25 08:15:01;;;;;;;17.67;12.80;;;5.30;87.10;;;;;;5071101;28;20448;-46
2021/10/25 08:17:43;;;;;;;22.00;12.73;;;5.40;86.90;;;;;;5069172;28;20992;-46
2021/10/25 08:20:11;;;;;;;22.17;12.57;;;5.40;86.90;;;;;;5058664;28;20537;-45
2021/10/25 08:22:38;;;;;;;25.10;13.73;;;5.40;87.10;;;;;;5071993;28;20441;-46
2021/10/25 08:25:06;;;;;;;17.57;11.47;;;5.40;87.00;;;;;;5071905;28;20905;-46
2021/10/25 08:27:35;;;;;;;18.80;12.87;;;5.40;87.10;;;;;;5056345;28;20452;-45
2021/10/25 08:30:03;;;;;;;17.47;13.27;;;5.50;87.50;;;;;;5071041;28;20511;-45
2021/10/25 08:40:41;;;;;;;20.17;14.97;;;5.60;87.20;;;;;;5078100;28;20493;-45
2021/10/25 08:43:09;;;;;;;22.17;14.10;;;5.70;86.70;;;;;;5067952;28;20458;-45
2021/10/25 08:45:36;;;;;;;20.97;13.17;;;5.70;86.60;;;;;;5075327;28;20450;-45
2021/10/25 08:48:04;;;;;;;17.70;13.50;;;5.60;86.90;;;;;;5073865;28;20442;-45
2021/10/25 08:50:34;;;;;;;22.37;13.77;;;5.70;87.00;;;;;;5072532;28;20482;-45
2021/10/25 08:53:07;;;;;;;27.57;15.30;;;5.70;86.70;;;;;;5048131;28;21078;-45
2021/10/25 08:55:34;;;;;;;21.37;14.80;;;5.70;86.90;;;;;;5076840;28;20455;-45
2021/10/25 08:58:05;;;;;;;22.43;14.73;;;5.70;87.00;;;;;;5059311;28;20508;-45
2021/10/25 09:00:42;;;;;;;23.03;13.40;;;5.80;86.90;;;;;;5071267;28;20446;-45
2021/10/25 09:03:10;;;;;;;24.73;15.77;;;5.80;86.90;;;;;;5072363;28;20465;-45
2021/10/25 09:05:37;;;;;;;19.57;14.57;;;5.80;86.90;;;;;;5056052;28;21013;-45
2021/10/25 09:08:10;;;;;;;22.27;15.80;;;5.90;86.90;;;;;;5076834;28;20530;-45
2021/10/25 09:10:40;;;;;;;19.33;14.37;;;5.90;86.40;;;;;;5074171;28;20904;-45
2021/10/25 09:13:33;;;;;;;21.37;13.57;;;5.90;86.20;;;;;;5074464;28;20575;-45
2021/10/25 09:16:03;;;;;;;18.90;13.23;;;5.80;86.70;;;;;;5068986;28;20461;-45
2021/10/25 09:18:38;;;;;;;16.43;12.70;;;5.90;86.80;;;;;;5060606;28;20446;-45
2021/10/25 09:21:10;;;;;;;16.00;12.17;;;5.90;86.70;;;;;;5059160;28;20457;-45
2021/10/25 09:23:46;;;;;;;20.13;14.30;;;5.90;86.60;;;;;;5074772;28;20537;-45
2021/10/25 09:26:16;;;;;;;19.10;13.57;;;6.00;86.80;;;;;;5059994;28;20456;-45
2021/10/25 09:28:48;;;;;;;15.60;13.10;;;6.00;86.80;;;;;;5075788;28;20457;-46
2021/10/25 09:31:29;;;;;;;17.77;13.37;;;6.00;86.80;;;;;;5075791;28;20486;-46
2021/10/25 09:34:05;;;;;;;22.80;14.57;;;6.10;87.00;;;;;;5074946;28;20449;-46
2021/10/25 09:36:37;;;;;;;19.33;14.10;;;6.20;86.10;;;;;;5055574;28;21061;-46
2021/10/25 09:49:54;;;;;;;17.67;14.73;;;6.20;86.80;;;;;;5073280;28;20456;-46
2021/10/25 09:52:39;;;;;;;26.07;15.50;;;6.30;86.90;;;;;;5059710;28;20446;-45
2021/10/25 09:55:09;;;;;;;24.93;16.60;;;6.40;86.90;;;;;;5065144;28;20911;-45
2021/10/25 09:57:42;;;;;;;25.43;17.00;;;6.40;86.60;;;;;;5068587;28;20446;-45
2021/10/25 10:00:11;;;;;;;20.40;16.03;;;6.40;86.70;;;;;;5070476;28;20453;-45
2021/10/25 10:02:38;;;;;;;23.40;17.33;;;6.40;86.60;;;;;;5051232;28;20808;-45
2021/10/25 10:05:06;;;;;;;24.77;18.03;;;6.40;87.00;;;;;;5070972;28;20458;-46
2021/10/25 10:07:34;;;;;;;31.00;18.40;;;6.40;87.40;;;;;;5060545;28;20489;-46
2021/10/25 10:10:01;;;;;;;28.03;17.27;;;6.50;87.50;;;;;;5066834;28;20454;-46
2021/10/25 10:12:28;;;;;;;27.40;17.77;;;6.60;87.40;;;;;;5052191;28;20449;-46
2021/10/25 10:14:57;;;;;;;25.00;17.60;;;6.60;87.60;;;;;;5053402;28;20451;-46
2021/10/25 10:17:42;;;;;;;25.90;18.30;;;6.70;87.50;;;;;;5068490;28;20457;-46
2021/10/25 10:20:13;;;;;;;26.23;19.00;;;6.80;87.70;;;;;;5072825;28;20524;-46
2021/10/25 10:22:45;;;;;;;30.17;19.13;;;7.00;87.50;;;;;;5075204;28;20451;-46
2021/10/25 10:25:11;;;;;;;31.80;20.07;;;7.10;87.20;;;;;;5072860;28;20811;-46
2021/10/25 10:27:38;;;;;;;29.57;19.20;;;7.10;86.90;;;;;;5073888;28;20534;-46
2021/10/25 10:30:12;;;;;;;31.97;19.97;;;7.20;86.50;;;;;;5078954;28;20525;-46
2021/10/25 10:32:39;;;;;;;27.77;19.20;;;7.30;86.20;;;;;;5047307;28;20811;-46
2021/10/25 10:35:08;;;;;;;32.47;20.00;;;7.40;86.20;;;;;;5073284;28;20450;-46
2021/10/25 10:37:41;;;;;;;32.47;18.87;;;7.40;86.00;;;;;;5056991;28;20464;-46
2021/10/25 10:40:12;;;;;;;29.23;19.20;;;7.50;86.10;;;;;;5077849;28;21001;-46
2021/10/25 10:42:43;;;;;;;26.67;19.43;;;7.60;85.90;;;;;;5071043;28;20456;-46
2021/10/25 10:45:11;;;;;;;29.50;19.07;;;7.70;85.90;;;;;;5055866;28;20464;-46
2021/10/25 10:47:42;;;;;;;30.43;19.90;;;7.80;85.60;;;;;;5060756;28;20456;-46
2021/10/25 10:50:34;;;;;;;25.30;19.97;;;7.90;85.40;;;;;;5054559;28;20541;-46
2021/10/25 10:53:11;;;;;;;29.83;18.87;;;7.90;85.20;;;;;;5065922;28;20464;-46
2021/10/25 10:55:40;;;;;;;25.90;18.47;;;8.00;84.70;;;;;;5072304;28;20528;-46
2021/10/25 11:00:44;;;;;;;30.40;21.23;;;8.00;84.60;;;;;;5075994;28;21081;-46
2021/10/25 11:03:13;;;;;;;34.40;19.50;;;8.10;84.40;;;;;;5057647;28;20537;-45
2021/10/25 11:05:53;;;;;;;32.77;19.63;;;8.20;84.30;;;;;;5070441;28;20475;-45
2021/10/25 11:08:22;;;;;;;34.53;21.57;;;8.20;84.00;;;;;;5073310;28;20524;-45
2021/10/25 11:11:05;;;;;;;33.27;21.27;;;8.20;83.80;;;;;;5060262;28;20994;-45
2021/10/25 11:13:50;;;;;;;30.53;22.40;;;8.30;83.70;;;;;;5074819;28;20458;-45
2021/10/25 11:18:56;;;;;;;37.07;22.17;;;8.20;83.50;;;;;;5073231;28;20481;-45
2021/10/25 11:21:36;;;;;;;30.33;20.50;;;8.20;83.60;;;;;;5069405;28;20553;-45
2021/10/25 11:24:05;;;;;;;28.97;21.10;;;8.30;84.00;;;;;;5073798;28;20565;-45
2021/10/25 11:26:45;;;;;;;28.83;20.03;;;8.30;84.00;;;;;;5070559;28;20477;-45
2021/10/25 11:29:29;;;;;;;30.07;22.13;;;8.40;84.50;;;;;;5074086;28;20462;-45
2021/10/25 11:31:59;;;;;;;31.63;22.43;;;8.40;84.60;;;;;;5071049;28;20477;-45
2021/10/25 11:34:36;;;;;;;33.53;20.97;;;8.50;84.50;;;;;;5073148;28;20501;-45
2021/10/25 11:37:12;;;;;;;35.63;25.67;;;8.60;84.40;;;;;;5074311;28;20464;-45
2021/10/25 11:39:43;;;;;;;44.60;23.60;;;8.60;83.80;;;;;;5071051;28;20441;-45
2021/10/25 11:42:13;;;;;;;32.70;22.70;;;8.60;83.70;;;;;;5051559;28;20459;-45
2021/10/25 11:44:42;;;;;;;33.83;23.73;;;8.50;83.80;;;;;;5053480;28;20447;-45
2021/10/25 11:47:24;;;;;;;35.03;23.53;;;8.60;84.20;;;;;;5070778;28;20450;-45
2021/10/25 11:49:53;;;;;;;36.27;23.60;;;8.60;83.80;;;;;;5077596;28;20990;-46
2021/10/25 11:52:20;;;;;;;36.60;21.80;;;8.60;83.80;;;;;;5072296;28;20509;-46
2021/10/25 11:54:48;;;;;;;35.97;22.47;;;8.60;84.10;;;;;;5068768;28;20993;-46
2021/10/25 11:57:18;;;;;;;38.33;24.80;;;8.60;84.10;;;;;;5052469;28;20456;-46
2021/10/25 11:59:58;;;;;;;43.40;24.53;;;8.70;84.10;;;;;;5068175;28;20803;-46
2021/10/25 12:02:26;;;;;;;39.90;25.17;;;8.80;83.60;;;;;;5072659;28;20464;-46
2021/10/25 12:04:53;;;;;;;35.73;22.77;;;8.80;83.70;;;;;;5061566;28;20474;-46
2021/10/25 12:07:19;;;;;;;37.00;23.57;;;8.90;83.30;;;;;;5073412;28;20456;-46
2021/10/25 12:09:46;;;;;;;32.20;22.27;;;8.90;82.70;;;;;;5073314;28;20464;-46
2021/10/25 12:12:15;;;;;;;35.03;22.00;;;9.00;82.90;;;;;;5077593;28;20517;-46
2021/10/25 12:14:45;;;;;;;34.50;23.27;;;9.00;83.10;;;;;;5070875;28;20457;-46
2021/10/25 12:17:19;;;;;;;32.10;22.70;;;9.10;82.90;;;;;;5076869;28;20477;-46
2021/10/25 12:19:46;;;;;;;39.73;24.37;;;9.10;82.80;;;;;;5070596;28;20468;-46
2021/10/25 12:22:20;;;;;;;41.30;25.70;;;9.10;82.90;;;;;;5075564;28;20450;-46
2021/10/25 12:24:50;;;;;;;40.67;26.00;;;9.20;82.80;;;;;;5058751;28;20463;-46
2021/10/25 12:27:37;;;;;;;42.93;26.23;;;9.20;82.70;;;;;;5073168;28;20973;-46
2021/10/25 12:30:07;;;;;;;50.63;28.87;;;9.30;82.60;;;;;;5071516;28;20966;-46
2021/10/25 12:32:36;;;;;;;42.43;25.83;;;9.40;82.20;;;;;;5071019;28;20495;-44
2021/10/25 12:35:04;;;;;;;41.30;25.77;;;9.50;81.70;;;;;;5073100;28;20988;-45
2021/10/25 12:37:33;;;;;;;47.37;25.60;;;9.60;81.50;;;;;;5074116;28;20456;-46
2021/10/25 12:40:18;;;;;;;46.63;26.80;;;9.70;80.90;;;;;;5075190;28;20442;-47
2021/10/25 12:42:46;;;;;;;39.37;25.40;;;9.80;80.30;;;;;;5064346;28;20523;-47
2021/10/25 12:45:20;;;;;;;51.60;30.03;;;9.80;80.40;;;;;;5072801;28;20521;-45
2021/10/25 12:47:52;;;;;;;59.47;31.60;;;9.80;80.30;;;;;;5058957;28;20453;-44
2021/10/25 12:50:18;;;;;;;48.30;29.20;;;10.00;79.90;;;;;;5077884;28;20452;-44
2021/10/25 12:52:54;;;;;;;51.13;26.70;;;10.10;80.10;;;;;;5074450;28;20484;-43
2021/10/25 12:55:21;;;;;;;44.80;28.57;;;10.10;80.00;;;;;;5057637;28;20541;-43
2021/10/25 12:57:48;;;;;;;47.03;27.17;;;10.20;79.30;;;;;;5051675;28;20458;-43
2021/10/25 13:00:16;;;;;;;46.43;27.50;;;10.20;79.40;;;;;;5053255;28;20460;-43
2021/10/25 13:02:49;;;;;;;46.13;26.70;;;10.20;79.40;;;;;;5048567;28;20460;-43
2021/10/25 13:05:19;;;;;;;44.97;27.07;;;10.20;78.90;;;;;;5069746;28;20488;-43
2021/10/25 13:08:03;;;;;;;46.03;28.43;;;10.30;79.10;;;;;;5052164;28;21007;-43
2021/10/25 13:10:33;;;;;;;47.13;26.73;;;10.30;78.90;;;;;;5069013;28;20947;-43
2021/10/25 13:13:02;;;;;;;47.63;27.63;;;10.40;78.60;;;;;;5068324;28;20486;-43
2021/10/25 13:15:29;;;;;;;49.40;27.70;;;10.40;78.50;;;;;;5064100;28;20450;-43
2021/10/25 13:17:59;;;;;;;47.83;27.83;;;10.50;78.30;;;;;;5068773;28;20451;-43
2021/10/25 13:20:28;;;;;;;40.73;25.17;;;10.50;78.30;;;;;;5070074;28;20458;-43
2021/10/25 13:22:57;;;;;;;49.23;26.47;;;10.50;78.20;;;;;;5071800;28;20528;-43
2021/10/25 13:25:26;;;;;;;44.90;26.53;;;10.60;77.90;;;;;;5078914;28;20491;-43
2021/10/25 13:27:53;;;;;;;39.33;23.57;;;10.60;77.80;;;;;;5075056;28;20457;-43
2021/10/25 13:30:22;;;;;;;45.73;23.30;;;10.60;77.50;;;;;;5077830;28;20454;-43
2021/10/25 13:32:49;;;;;;;44.10;26.60;;;10.60;77.30;;;;;;5061019;28;20488;-43
2021/10/25 13:35:17;;;;;;;41.30;24.47;;;10.60;76.90;;;;;;5072949;28;20472;-43
2021/10/25 13:37:51;;;;;;;34.00;22.53;;;10.60;76.90;;;;;;5056169;28;20537;-43
2021/10/25 13:40:20;;;;;;;41.17;22.77;;;10.70;76.70;;;;;;5043499;28;20475;-43
2021/10/25 13:42:47;;;;;;;34.57;23.20;;;10.70;76.60;;;;;;5072164;28;20549;-43
2021/10/25 13:45:14;;;;;;;37.00;21.43;;;10.70;76.60;;;;;;5070758;28;20455;-43
2021/10/25 13:47:41;;;;;;;37.47;22.27;;;10.80;76.80;;;;;;5077192;28;20465;-43
2021/10/25 13:50:08;;;;;;;33.13;19.30;;;10.90;76.40;;;;;;5075024;28;20454;-43
2021/10/25 13:52:36;;;;;;;28.67;18.73;;;10.90;75.70;;;;;;5071716;28;20475;-43
2021/10/25 13:55:05;;;;;;;32.10;19.93;;;11.00;76.10;;;;;;5073643;28;20898;-43
2021/10/25 13:57:40;;;;;;;32.30;19.70;;;11.00;76.00;;;;;;5074194;28;20457;-43
2021/10/25 14:00:12;;;;;;;36.00;20.50;;;11.00;75.60;;;;;;5067680;28;20529;-43
2021/10/25 14:02:41;;;;;;;30.47;17.83;;;11.00;75.50;;;;;;5074263;28;20467;-43
2021/10/25 14:05:17;;;;;;;27.37;18.30;;;11.00;75.60;;;;;;5076114;28;20459;-43
2021/10/25 14:07:45;;;;;;;29.57;17.77;;;11.00;75.20;;;;;;5074611;28;20468;-43
2021/10/25 14:12:42;;;;;;;26.70;17.97;;;11.00;75.30;;;;;;5071430;28;20484;-43
2021/10/25 14:15:56;;;;;;;20.00;14.73;;;11.10;75.00;;;;;;5074870;28;20454;-43
2021/10/25 14:18:07;;;;;;;24.13;16.33;;;11.10;75.20;;;;;;5067020;28;20457;-43
2021/10/25 14:20:34;;;;;;;33.50;20.60;;;11.10;75.90;;;;;;5056921;28;20986;-43
2021/10/25 14:23:01;;;;;;;32.97;19.10;;;11.10;75.60;;;;;;5074113;28;20814;-43
2021/10/25 14:25:29;;;;;;;21.93;15.17;;;11.10;75.10;;;;;;5073596;28;20461;-43
2021/10/25 14:27:57;;;;;;;20.90;15.37;;;11.10;74.70;;;;;;5077884;28;20456;-43
2021/10/25 14:30:24;;;;;;;23.20;15.47;;;11.10;74.50;;;;;;5073679;28;23009;-43
2021/10/25 14:32:51;;;;;;;20.37;14.23;;;11.20;74.80;;;;;;5048030;28;20505;-43
2021/10/25 14:35:18;;;;;;;21.60;13.17;;;11.20;75.30;;;;;;5070632;28;20461;-43